createdAt,value
2023-04-16T00:01:29.031Z,12.20
2023-04-16T00:03:56.765Z,12.18
2023-04-16T00:06:24.414Z,12.43
2023-04-16T00:08:51.974Z,11.45
2023-04-16T00:11:19.507Z,11.95
2023-04-16T00:13:47.273Z,12.20
2023-04-16T00:16:14.824Z,10.52
2023-04-16T00:18:43.235Z,11.20
2023-04-16T00:21:11.172Z,12.18
2023-04-16T00:23:38.760Z,12.80
2023-04-16T00:26:06.234Z,12.27
2023-04-16T00:28:33.782Z,13.52
2023-04-16T00:31:01.835Z,12.75
2023-04-16T00:33:30.483Z,12.88
2023-04-16T00:35:58.922Z,13.52
2023-04-16T00:38:30.308Z,13.10
2023-04-16T00:41:01.176Z,12.90
2023-04-16T00:43:28.810Z,15.23
2023-04-16T00:45:58.086Z,15.98
2023-04-16T00:48:28.100Z,15.02
2023-04-16T00:50:57.313Z,14.70
2023-04-16T00:53:25.545Z,17.80
2023-04-16T00:55:56.068Z,17.25
2023-04-16T00:58:25.374Z,17.70
2023-04-16T01:00:53.081Z,18.05
2023-04-16T01:03:20.832Z,17.60
2023-04-16T01:05:49.519Z,18.08
2023-04-16T01:08:22.076Z,17.70
2023-04-16T01:10:49.680Z,16.63
2023-04-16T01:13:17.249Z,15.98
2023-04-16T01:15:44.794Z,16.08
2023-04-16T01:18:17.122Z,16.88
2023-04-16T01:20:45.584Z,17.25
2023-04-16T01:23:14.251Z,15.37
2023-04-16T01:25:41.974Z,16.00
2023-04-16T01:28:09.566Z,15.90
2023-04-16T01:30:37.253Z,15.07
2023-04-16T01:33:33.979Z,14.30
2023-04-16T01:36:01.648Z,15.05
2023-04-16T01:38:29.200Z,15.77
2023-04-16T01:41:00.049Z,15.52
2023-04-16T01:43:27.599Z,14.95
2023-04-16T01:46:12.296Z,13.85
2023-04-16T01:48:39.938Z,14.93
2023-04-16T01:51:07.545Z,13.70
2023-04-16T01:53:37.013Z,12.80
2023-04-16T01:56:05.976Z,14.63
2023-04-16T01:58:34.270Z,13.38
2023-04-16T02:01:02.149Z,13.63
2023-04-16T02:03:31.389Z,13.75
2023-04-16T02:05:59.159Z,13.57
2023-04-16T02:08:29.542Z,12.90
2023-04-16T02:11:00.572Z,11.82
2023-04-16T02:13:31.025Z,12.85
2023-04-16T02:15:58.659Z,11.27
2023-04-16T02:18:41.145Z,12.43
2023-04-16T02:21:08.887Z,11.13
2023-04-16T02:23:36.564Z,11.15
2023-04-16T02:26:04.514Z,12.57
2023-04-16T02:28:32.034Z,10.75
2023-04-16T02:30:59.950Z,10.90
2023-04-16T02:33:31.989Z,10.65
2023-04-16T02:36:02.703Z,10.57
2023-04-16T02:38:30.525Z,9.88
2023-04-16T02:40:59.406Z,10.63
2023-04-16T02:43:26.838Z,11.70
2023-04-16T02:45:54.339Z,10.43
2023-04-16T02:48:21.932Z,11.32
2023-04-16T02:50:49.414Z,10.27
2023-04-16T02:53:17.000Z,11.00
2023-04-16T02:55:54.573Z,11.05
2023-04-16T02:58:24.521Z,11.05
2023-04-16T03:00:53.598Z,10.43
2023-04-16T03:03:21.943Z,11.20
2023-04-16T03:05:50.045Z,11.93
2023-04-16T03:08:17.445Z,11.93
2023-04-16T03:10:45.009Z,11.50
2023-04-16T03:13:12.504Z,11.82
2023-04-16T03:15:40.376Z,10.98
2023-04-16T03:18:07.879Z,11.63
2023-04-16T03:20:35.384Z,12.13
2023-04-16T03:23:02.875Z,12.27
2023-04-16T03:25:30.601Z,12.63
2023-04-16T03:28:00.979Z,11.85
2023-04-16T03:30:28.557Z,12.45
2023-04-16T03:32:56.293Z,12.48
2023-04-16T03:35:23.951Z,12.70
2023-04-16T03:37:51.781Z,12.55
2023-04-16T03:40:19.323Z,12.20
2023-04-16T03:42:46.877Z,12.75
2023-04-16T03:45:15.279Z,13.32
2023-04-16T03:47:43.553Z,13.20
2023-04-16T03:50:11.746Z,12.68
2023-04-16T03:52:39.640Z,13.20
2023-04-16T03:55:07.643Z,14.85
2023-04-16T03:57:35.433Z,14.60
2023-04-16T04:00:10.100Z,13.32
2023-04-16T04:02:58.223Z,14.55
2023-04-16T04:05:26.080Z,14.45
2023-04-16T04:07:53.931Z,13.93
2023-04-16T04:10:21.500Z,14.10
2023-04-16T04:12:49.012Z,15.98
2023-04-16T04:15:16.624Z,14.75
2023-04-16T04:17:44.190Z,14.43
2023-04-16T04:20:12.437Z,15.13
2023-04-16T04:22:41.619Z,16.38
2023-04-16T04:25:10.642Z,15.23
2023-04-16T04:27:38.318Z,15.07
2023-04-16T04:30:06.717Z,14.55
2023-04-16T04:32:35.021Z,15.23
2023-04-16T04:35:03.410Z,16.20
2023-04-16T04:37:31.515Z,15.88
2023-04-16T04:39:59.098Z,15.77
2023-04-16T04:42:27.358Z,15.48
2023-04-16T04:44:56.029Z,14.85
2023-04-16T04:49:56.660Z,14.73
2023-04-16T04:52:24.219Z,16.13
2023-04-16T04:54:53.057Z,15.50
2023-04-16T04:57:20.811Z,15.65
2023-04-16T04:59:51.893Z,15.27
2023-04-16T05:02:19.969Z,15.40
2023-04-16T05:04:47.753Z,16.35
2023-04-16T05:07:15.897Z,16.65
2023-04-16T05:09:43.437Z,16.38
2023-04-16T05:12:14.097Z,15.45
2023-04-16T05:14:41.748Z,16.08
2023-04-16T05:17:10.908Z,15.30
2023-04-16T05:19:38.686Z,16.98
2023-04-16T05:22:06.389Z,16.05
2023-04-16T05:24:34.146Z,15.05
2023-04-16T05:27:01.847Z,16.02
2023-04-16T05:29:29.916Z,15.25
2023-04-16T05:31:59.424Z,15.10
2023-04-16T05:34:27.023Z,15.75
2023-04-16T05:36:54.548Z,14.13
2023-04-16T05:39:22.505Z,15.68
2023-04-16T05:41:50.010Z,14.07
2023-04-16T05:44:17.593Z,14.27
2023-04-16T05:46:45.120Z,13.30
2023-04-16T05:49:12.683Z,12.73
2023-04-16T05:51:40.369Z,13.65
2023-04-16T05:54:07.882Z,12.60
2023-04-16T05:56:35.372Z,13.20
2023-04-16T05:59:03.113Z,14.57
2023-04-16T06:01:31.458Z,14.15
2023-04-16T06:04:00.313Z,13.77
2023-04-16T06:06:28.354Z,13.75
2023-04-16T06:08:55.978Z,13.23
2023-04-16T06:11:27.611Z,14.00
2023-04-16T06:13:55.340Z,13.52
2023-04-16T06:16:22.896Z,14.75
2023-04-16T06:18:50.552Z,14.30
2023-04-16T06:21:18.277Z,15.95
2023-04-16T06:23:45.877Z,14.75
2023-04-16T06:26:13.447Z,13.88
2023-04-16T06:28:40.990Z,12.00
2023-04-16T06:31:08.620Z,10.80
2023-04-16T06:33:36.259Z,10.50
2023-04-16T06:36:03.943Z,7.35
2023-04-16T06:38:31.700Z,7.15
2023-04-16T06:40:59.673Z,5.80
2023-04-16T06:43:30.299Z,5.82
2023-04-16T06:45:58.421Z,8.35
2023-04-16T06:48:26.026Z,8.85
2023-04-16T06:53:26.972Z,6.35
2023-04-16T06:55:54.459Z,3.88
2023-04-16T06:58:22.501Z,3.28
2023-04-16T07:00:50.085Z,2.83
2023-04-16T07:03:17.687Z,2.72
2023-04-16T07:05:45.331Z,3.20
2023-04-16T07:08:12.909Z,3.20
2023-04-16T07:10:40.441Z,2.55
2023-04-16T07:13:08.511Z,2.10
2023-04-16T07:15:38.654Z,1.67
2023-04-16T07:18:06.671Z,2.08
2023-04-16T07:20:34.201Z,2.40
2023-04-16T07:23:02.139Z,2.28
2023-04-16T07:25:29.689Z,2.78
2023-04-16T07:27:57.453Z,2.38
2023-04-16T07:30:25.294Z,2.40
2023-04-16T07:32:53.307Z,2.72
2023-04-16T07:35:20.974Z,2.60
2023-04-16T07:37:48.501Z,1.90
2023-04-16T07:40:16.235Z,1.60
2023-04-16T07:42:43.844Z,1.05
2023-04-16T07:45:11.622Z,1.33
2023-04-16T07:47:39.293Z,0.80
2023-04-16T07:50:07.994Z,0.90
2023-04-16T07:52:35.698Z,0.80
2023-04-16T07:55:03.414Z,0.43
2023-04-16T07:57:31.282Z,0.60
2023-04-16T07:59:58.916Z,0.70
2023-04-16T08:02:30.068Z,0.50
2023-04-16T08:04:57.995Z,1.70
2023-04-16T08:07:26.144Z,0.60
2023-04-16T08:09:54.672Z,0.65
2023-04-16T08:12:22.438Z,1.65
2023-04-16T08:14:49.990Z,0.57
2023-04-16T08:17:17.773Z,0.73
2023-04-16T08:19:45.711Z,0.50
2023-04-16T08:22:14.007Z,0.93
2023-04-16T08:24:41.578Z,0.70
2023-04-16T08:27:18.652Z,0.60
2023-04-16T08:29:48.508Z,0.60
2023-04-16T08:32:16.106Z,0.70
2023-04-16T08:34:43.808Z,0.82
2023-04-16T08:37:11.323Z,0.70
2023-04-16T08:39:38.947Z,0.70
2023-04-16T08:42:12.029Z,0.80
2023-04-16T08:44:44.215Z,0.70
2023-04-16T08:47:13.593Z,1.02
2023-04-16T08:49:45.128Z,0.70
2023-04-16T08:52:20.252Z,0.93
2023-04-16T08:55:12.597Z,1.08
2023-04-16T08:58:03.555Z,1.00
2023-04-16T09:00:32.534Z,0.77
2023-04-16T09:03:00.636Z,0.80
2023-04-16T09:05:29.776Z,0.90
2023-04-16T09:07:57.317Z,1.00
2023-04-16T09:10:26.906Z,1.42
2023-04-16T09:13:00.842Z,0.88
2023-04-16T09:15:29.517Z,0.85
2023-04-16T09:17:57.679Z,0.80
2023-04-16T09:20:25.393Z,0.90
2023-04-16T09:22:52.978Z,1.63
2023-04-16T09:25:22.836Z,1.33
2023-04-16T09:27:51.120Z,1.67
2023-04-16T09:30:21.911Z,1.00
2023-04-16T09:32:51.386Z,1.17
2023-04-16T09:35:22.242Z,1.90
2023-04-16T09:37:57.220Z,1.10
2023-04-16T09:40:27.170Z,1.35
2023-04-16T09:45:24.824Z,1.00
2023-04-16T09:47:52.442Z,1.30
2023-04-16T09:50:21.007Z,1.55
2023-04-16T09:52:53.748Z,1.00
2023-04-16T09:55:27.245Z,1.13
2023-04-16T09:58:01.262Z,0.63
2023-04-16T10:00:30.604Z,0.50
2023-04-16T10:03:06.348Z,0.47
2023-04-16T10:05:34.200Z,0.28
2023-04-16T10:08:02.192Z,0.82
2023-04-16T10:10:30.203Z,0.57
2023-04-16T10:12:58.149Z,0.40
2023-04-16T10:15:25.989Z,0.70
2023-04-16T10:17:54.319Z,0.57
2023-04-16T10:20:23.947Z,0.82
2023-04-16T10:22:52.137Z,1.00
2023-04-16T10:25:20.204Z,0.70
2023-04-16T10:27:48.398Z,2.10
2023-04-16T10:30:20.305Z,2.80
2023-04-16T10:32:49.209Z,1.20
2023-04-16T10:35:20.558Z,0.98
2023-04-16T10:37:48.198Z,0.70
2023-04-16T10:40:27.218Z,0.68
2023-04-16T10:42:56.682Z,0.73
2023-04-16T10:45:42.159Z,0.85
2023-04-16T10:48:10.141Z,1.65
2023-04-16T10:50:38.173Z,0.88
2023-04-16T10:53:20.318Z,2.17
2023-04-16T10:56:04.626Z,0.80
2023-04-16T10:58:35.798Z,1.25
2023-04-16T11:01:15.824Z,1.52
2023-04-16T11:06:38.283Z,2.03
2023-04-16T11:09:05.872Z,0.88
2023-04-16T11:11:39.658Z,1.17
2023-04-16T11:14:10.354Z,2.15
2023-04-16T11:16:40.825Z,1.23
2023-04-16T11:19:09.156Z,1.17
2023-04-16T11:21:36.736Z,1.60
2023-04-16T11:24:04.357Z,1.20
2023-04-16T11:26:31.897Z,1.63
2023-04-16T11:29:00.296Z,1.52
2023-04-16T11:31:30.622Z,1.30
2023-04-16T11:33:58.354Z,1.30
2023-04-16T11:36:27.881Z,1.30
2023-04-16T11:39:02.439Z,1.13
2023-04-16T11:41:30.680Z,1.10
2023-04-16T11:43:58.894Z,1.40
2023-04-16T11:46:40.467Z,0.95
2023-04-16T11:49:08.843Z,1.98
2023-04-16T11:51:41.694Z,1.33
2023-04-16T11:54:12.069Z,1.83
2023-04-16T11:56:47.491Z,1.02
2023-04-16T11:59:20.801Z,1.23
2023-04-16T12:01:56.046Z,0.90
2023-04-16T12:04:28.085Z,1.20
2023-04-16T12:07:12.253Z,3.60
2023-04-16T12:09:44.331Z,1.42
2023-04-16T12:12:31.413Z,1.10
2023-04-16T12:15:03.608Z,1.27
2023-04-16T12:17:33.567Z,1.20
2023-04-16T12:20:06.090Z,1.27
2023-04-16T12:22:36.786Z,1.40
2023-04-16T12:25:07.963Z,1.33
2023-04-16T12:27:57.922Z,1.58
2023-04-16T12:33:14.649Z,1.48
2023-04-16T12:35:44.045Z,1.42
2023-04-16T12:38:12.122Z,1.60
2023-04-16T12:40:39.773Z,1.90
2023-04-16T12:43:08.544Z,2.10
2023-04-16T12:45:36.264Z,1.77
2023-04-16T12:48:03.996Z,1.48
2023-04-16T12:50:31.808Z,2.30
2023-04-16T12:52:59.782Z,1.70
2023-04-16T12:55:30.253Z,2.63
2023-04-16T12:57:58.143Z,2.60
2023-04-16T13:00:25.840Z,2.33
2023-04-16T13:02:53.446Z,3.08
2023-04-16T13:05:21.069Z,1.60
2023-04-16T13:07:48.579Z,1.73
2023-04-16T13:10:16.751Z,2.83
2023-04-16T13:12:44.555Z,1.73
2023-04-16T13:15:12.070Z,2.38
2023-04-16T13:17:39.627Z,2.50
2023-04-16T13:20:07.751Z,3.30
2023-04-16T13:22:35.471Z,4.97
2023-04-16T13:25:03.014Z,2.33
2023-04-16T13:27:32.233Z,2.45
2023-04-16T13:29:59.873Z,3.25
2023-04-16T13:32:27.822Z,2.00
2023-04-16T13:34:55.810Z,3.25
2023-04-16T13:37:23.398Z,2.45
2023-04-16T13:39:50.908Z,1.85
2023-04-16T13:42:18.504Z,2.33
2023-04-16T13:44:53.110Z,2.15
2023-04-16T13:47:21.071Z,2.30
2023-04-16T13:49:49.191Z,2.17
2023-04-16T13:52:17.104Z,1.88
2023-04-16T13:54:44.743Z,2.08
2023-04-16T13:57:20.253Z,1.95
2023-04-16T13:59:48.222Z,2.60
2023-04-16T14:02:16.029Z,2.22
2023-04-16T14:04:43.718Z,2.58
2023-04-16T14:07:11.233Z,2.88
2023-04-16T14:09:38.776Z,2.25
2023-04-16T14:12:06.860Z,2.92
2023-04-16T14:14:35.067Z,3.40
2023-04-16T14:17:03.332Z,2.90
2023-04-16T14:19:31.302Z,2.60
2023-04-16T14:21:58.845Z,3.00
2023-04-16T14:24:26.493Z,2.80
2023-04-16T14:26:54.242Z,2.90
2023-04-16T14:29:22.623Z,2.65
2023-04-16T14:31:50.614Z,2.78
2023-04-16T14:34:18.363Z,3.25
2023-04-16T14:36:46.048Z,2.17
2023-04-16T14:39:16.973Z,2.63
2023-04-16T14:41:45.738Z,3.00
2023-04-16T14:44:13.334Z,2.42
2023-04-16T14:46:41.131Z,2.47
2023-04-16T14:49:11.965Z,2.30
2023-04-16T14:51:40.923Z,3.58
2023-04-16T14:54:08.534Z,2.28
2023-04-16T14:56:38.542Z,2.80
2023-04-16T15:01:35.985Z,2.55
2023-04-16T15:04:03.656Z,2.35
2023-04-16T15:06:32.330Z,2.60
2023-04-16T15:09:00.074Z,2.60
2023-04-16T15:11:28.509Z,2.90
2023-04-16T15:13:57.661Z,2.28
2023-04-16T15:16:25.322Z,2.30
2023-04-16T15:18:53.065Z,2.22
2023-04-16T15:21:21.361Z,2.97
2023-04-16T15:23:49.029Z,2.30
2023-04-16T15:26:16.959Z,2.83
2023-04-16T15:28:44.484Z,2.33
2023-04-16T15:31:12.270Z,2.40
2023-04-16T15:33:40.098Z,3.08
2023-04-16T15:36:07.729Z,2.75
2023-04-16T15:38:35.651Z,2.33
2023-04-16T15:41:03.179Z,2.38
2023-04-16T15:43:30.874Z,2.83
2023-04-16T15:45:58.686Z,2.80
2023-04-16T15:48:26.411Z,2.40
2023-04-16T15:50:54.343Z,2.72
2023-04-16T15:53:22.304Z,2.65
2023-04-16T15:55:52.693Z,2.50
2023-04-16T15:58:23.531Z,3.53
2023-04-16T16:00:51.499Z,2.90
2023-04-16T16:03:20.614Z,2.50
2023-04-16T16:05:49.115Z,2.03
2023-04-16T16:08:19.841Z,2.42
2023-04-16T16:10:47.401Z,2.40
2023-04-16T16:13:18.139Z,2.53
2023-04-16T16:15:45.845Z,2.33
2023-04-16T16:18:13.380Z,2.60
2023-04-16T16:20:41.626Z,2.50
2023-04-16T16:23:09.298Z,1.92
2023-04-16T16:25:37.257Z,3.13
2023-04-16T16:28:06.516Z,3.45
2023-04-16T16:30:37.182Z,2.65
2023-04-16T16:33:04.671Z,3.95
2023-04-16T16:35:32.210Z,3.35
2023-04-16T16:37:59.758Z,3.38
2023-04-16T16:40:27.533Z,2.28
2023-04-16T16:42:56.934Z,2.65
2023-04-16T16:45:27.335Z,3.03
2023-04-16T16:47:55.508Z,2.63
2023-04-16T16:50:23.099Z,2.70
2023-04-16T16:52:51.544Z,3.08
2023-04-16T16:55:20.416Z,2.67
2023-04-16T16:57:48.026Z,2.85
2023-04-16T17:00:19.994Z,2.83
2023-04-16T17:02:48.917Z,2.60
2023-04-16T17:05:16.947Z,2.70
2023-04-16T17:07:44.548Z,2.85
2023-04-16T17:10:15.868Z,2.60
2023-04-16T17:12:43.643Z,2.60
2023-04-16T17:15:11.575Z,2.40
2023-04-16T17:17:39.351Z,2.67
2023-04-16T17:20:09.957Z,1.92
2023-04-16T17:22:39.081Z,2.47
2023-04-16T17:25:10.483Z,2.13
2023-04-16T17:27:38.005Z,1.85
2023-04-16T17:30:06.782Z,3.97
2023-04-16T17:32:34.613Z,3.63
2023-04-16T17:35:04.416Z,2.55
2023-04-16T17:39:59.852Z,3.00
2023-04-16T17:42:27.593Z,2.05
2023-04-16T17:44:55.312Z,2.00
2023-04-16T17:47:22.826Z,2.05
2023-04-16T17:49:54.328Z,2.15
2023-04-16T17:52:22.472Z,3.83
2023-04-16T17:54:50.106Z,2.20
2023-04-16T17:57:17.800Z,3.38
2023-04-16T17:59:46.178Z,7.00
2023-04-16T18:02:14.057Z,4.25
2023-04-16T18:04:42.219Z,2.78
2023-04-16T18:07:09.860Z,2.15
2023-04-16T18:09:37.439Z,2.20
2023-04-16T18:12:05.525Z,1.92
2023-04-16T18:14:37.207Z,1.98
2023-04-16T18:17:06.606Z,2.28
2023-04-16T18:19:35.992Z,3.60
2023-04-16T18:22:03.659Z,2.63
2023-04-16T18:24:35.008Z,2.53
2023-04-16T18:27:03.441Z,2.20
2023-04-16T18:29:33.905Z,2.33
2023-04-16T18:32:04.401Z,3.17
2023-04-16T18:34:32.612Z,2.95
2023-04-16T18:37:00.759Z,2.28
2023-04-16T18:39:28.469Z,3.53
2023-04-16T18:41:56.603Z,4.30
2023-04-16T18:44:24.523Z,3.97
2023-04-16T18:46:52.053Z,2.47
2023-04-16T18:49:19.714Z,2.67
2023-04-16T18:51:47.308Z,2.10
2023-04-16T18:54:17.326Z,2.22
2023-04-16T18:56:45.179Z,2.45
2023-04-16T18:59:13.651Z,2.78
2023-04-16T19:01:41.373Z,2.40
2023-04-16T19:04:09.261Z,2.20
2023-04-16T19:06:36.871Z,2.25
2023-04-16T19:09:04.367Z,2.70
2023-04-16T19:11:31.886Z,1.92
2023-04-16T19:14:02.131Z,2.60
2023-04-16T19:16:30.040Z,2.90
2023-04-16T19:18:57.717Z,2.97
2023-04-16T19:21:27.486Z,2.25
2023-04-16T19:23:55.033Z,3.88
2023-04-16T19:26:22.567Z,3.05
2023-04-16T19:28:50.139Z,2.83
2023-04-16T19:31:18.012Z,2.70
2023-04-16T19:33:45.678Z,4.80
2023-04-16T19:36:13.205Z,10.38
2023-04-16T19:38:41.159Z,8.85
2023-04-16T19:41:08.649Z,7.50
2023-04-16T19:43:37.339Z,6.22
2023-04-16T19:46:05.009Z,2.95
2023-04-16T19:48:32.651Z,3.63
2023-04-16T19:51:06.035Z,2.30
2023-04-16T19:53:34.839Z,2.08
2023-04-16T19:56:02.509Z,2.35
2023-04-16T19:58:30.339Z,2.40
2023-04-16T20:01:00.801Z,2.30
2023-04-16T20:03:28.494Z,2.05
2023-04-16T20:05:56.176Z,1.80
2023-04-16T20:08:24.585Z,4.63
2023-04-16T20:10:54.476Z,1.90
2023-04-16T20:13:24.540Z,1.73
2023-04-16T20:18:21.267Z,1.40
2023-04-16T20:20:52.055Z,2.80
2023-04-16T20:23:20.011Z,2.15
2023-04-16T20:25:48.246Z,2.15
2023-04-16T20:28:18.199Z,1.80
2023-04-16T20:30:46.133Z,2.20
2023-04-16T20:33:13.790Z,2.30
2023-04-16T20:35:41.678Z,2.35
2023-04-16T20:38:09.488Z,2.97
2023-04-16T20:40:38.721Z,1.95
2023-04-16T20:43:10.239Z,1.77
2023-04-16T20:45:38.301Z,2.15
2023-04-16T20:48:06.439Z,1.77
2023-04-16T20:50:34.038Z,2.13
2023-04-16T20:53:04.223Z,2.13
2023-04-16T20:55:32.434Z,2.00
2023-04-16T20:58:00.472Z,2.17
2023-04-16T21:00:28.379Z,1.75
2023-04-16T21:02:56.075Z,2.03
2023-04-16T21:05:26.564Z,1.88
2023-04-16T21:07:55.746Z,1.55
2023-04-16T21:10:23.903Z,1.92
2023-04-16T21:12:51.828Z,2.05
2023-04-16T21:15:19.674Z,1.80
2023-04-16T21:17:47.338Z,2.28
2023-04-16T21:20:16.562Z,1.98
2023-04-16T21:22:44.222Z,2.40
2023-04-16T21:25:12.026Z,2.65
2023-04-16T21:27:46.802Z,3.15
2023-04-16T21:30:14.813Z,2.92
2023-04-16T21:32:42.560Z,2.97
2023-04-16T21:35:10.589Z,2.97
2023-04-16T21:37:38.426Z,3.17
2023-04-16T21:40:06.831Z,2.95
2023-04-16T21:42:39.998Z,2.80
2023-04-16T21:45:09.780Z,3.38
2023-04-16T21:47:38.374Z,3.35
2023-04-16T21:50:06.778Z,3.05
2023-04-16T21:52:40.173Z,3.15
2023-04-16T21:55:09.409Z,3.08
2023-04-16T21:57:37.096Z,2.97
2023-04-16T22:00:11.999Z,3.47
2023-04-16T22:02:43.116Z,3.33
2023-04-16T22:05:12.156Z,3.13
2023-04-16T22:07:39.728Z,3.17
2023-04-16T22:10:08.787Z,3.65
2023-04-16T22:12:37.901Z,5.10
2023-04-16T22:15:07.247Z,4.57
2023-04-16T22:17:36.049Z,4.20
2023-04-16T22:20:13.444Z,5.10
2023-04-16T22:22:42.141Z,4.03
2023-04-16T22:25:10.690Z,3.90
2023-04-16T22:27:38.501Z,4.65
2023-04-16T22:30:08.354Z,4.85
2023-04-16T22:32:36.357Z,4.25
2023-04-16T22:35:04.119Z,4.00
2023-04-16T22:37:31.661Z,4.25
2023-04-16T22:39:59.247Z,4.03
2023-04-16T22:42:27.767Z,4.40
2023-04-16T22:44:55.921Z,4.63
2023-04-16T22:47:25.751Z,4.22
2023-04-16T22:49:54.334Z,4.57
2023-04-16T22:52:21.793Z,4.90
2023-04-16T22:54:49.350Z,4.68
2023-04-16T22:57:21.005Z,5.18
2023-04-16T22:59:48.657Z,5.05
2023-04-16T23:02:19.640Z,7.07
2023-04-16T23:04:47.987Z,4.03
2023-04-16T23:07:16.229Z,4.57
2023-04-16T23:09:43.784Z,4.90
2023-04-16T23:12:11.276Z,4.38
2023-04-16T23:14:38.911Z,4.57
2023-04-16T23:17:06.823Z,4.57
2023-04-16T23:19:34.298Z,5.32
2023-04-16T23:22:01.964Z,5.80
2023-04-16T23:24:29.546Z,5.88
2023-04-16T23:26:58.015Z,5.20
2023-04-16T23:29:25.553Z,5.90
2023-04-16T23:31:53.302Z,5.50
2023-04-16T23:34:20.988Z,6.47
2023-04-16T23:36:48.515Z,5.15
2023-04-16T23:39:16.253Z,5.45
2023-04-16T23:41:43.767Z,6.13
2023-04-16T23:44:11.319Z,6.80
2023-04-16T23:46:40.593Z,5.93
2023-04-16T23:49:08.409Z,6.43
2023-04-16T23:51:36.184Z,7.13
2023-04-16T23:54:03.968Z,8.40
2023-04-16T23:56:31.667Z,9.23
2023-04-16T23:58:59.244Z,8.00
